Time;durP1;ratioP1;P1;durP2;ratioP2;P2;SDS_P1;SDS_P2;PMS_P1;PMS_P2;Temp;Humidity;BMP_temperature;BMP_pressure;BME280_temperature;BME280_humidity;BME280_pressure;Samples;Min_cycle;Max_cycle;Signal;HPM_P1;HPM_P2
2022/10/24 00:03:52;;;;;;;;;;;;;;;;;;10460036;28;19978;-62
2022/10/24 00:08:55;;;;;;;;;;;;;;;;;;10457673;28;20387;-62
2022/10/24 00:13:57;;;;;;;;;;;;;;;;;;10459675;28;19924;-62
2022/10/24 00:18:59;;;;;;;;;;;;;;;;;;10440501;28;20388;-62
2022/10/24 00:24:01;;;;;;;;;;;;;;;;;;10459254;28;19971;-62
2022/10/24 00:29:03;;;;;;;;;;;;;;;;;;10458212;28;19925;-62
2022/10/24 00:34:05;;;;;;;;;;;;;;;;;;10458105;28;20376;-62
2022/10/24 00:39:07;;;;;;;;;;;;;;;;;;10456946;28;19925;-62
2022/10/24 00:44:09;;;;;;;;;;;;;;;;;;10457871;28;19924;-62
2022/10/24 00:49:11;;;;;;;;;;;;;;;;;;10456887;28;19925;-62
2022/10/24 00:54:13;;;;;;;;;;;;;;;;;;10457481;28;19925;-62
2022/10/24 00:59:15;;;;;;;;;;;;;;;;;;10456506;28;19936;-62
2022/10/24 01:04:17;;;;;;;;;;;;;;;;;;10457075;28;19971;-62
2022/10/24 01:09:19;;;;;;;;;;;;;;;;;;10457151;28;20434;-62
2022/10/24 01:14:21;;;;;;;;;;;;;;;;;;10456749;28;19928;-62
2022/10/24 01:19:23;;;;;;;;;;;;;;;;;;10456856;28;19952;-62
2022/10/24 01:24:25;;;;;;;;;;;;;;;;;;10456112;28;19929;-61
2022/10/24 01:29:27;;;;;;;;;;;;;;;;;;10415538;28;19925;-62
2022/10/24 01:34:29;;;;;;;;;;;;;;;;;;10461899;28;19928;-61
2022/10/24 01:39:31;;;;;;;;;;;;;;;;;;10497968;28;20355;-62
2022/10/24 01:44:33;;;;;;;;;;;;;;;;;;10486240;28;19924;-61
2022/10/24 01:49:36;;;;;;;;;;;;;;;;;;10506771;28;19928;-62
2022/10/24 01:54:38;;;;;;;;;;;;;;;;;;10505654;28;19924;-62
2022/10/24 01:59:40;;;;;;;;;;;;;;;;;;10504919;28;19924;-62
2022/10/24 02:04:42;;;;;;;;;;;;;;;;;;10504613;28;19924;-62
2022/10/24 02:09:44;;;;;;;;;;;;;;;;;;10505917;28;19946;-62
2022/10/24 02:14:46;;;;;;;;;;;;;;;;;;10504492;28;20268;-61
2022/10/24 02:19:48;;;;;;;;;;;;;;;;;;10504819;28;19925;-62
2022/10/24 02:24:50;;;;;;;;;;;;;;;;;;10503757;28;20303;-62
2022/10/24 02:29:52;;;;;;;;;;;;;;;;;;10505122;28;19971;-61
2022/10/24 02:34:54;;;;;;;;;;;;;;;;;;10472554;28;19971;-61
2022/10/24 02:39:56;;;;;;;;;;;;;;;;;;10462787;28;20423;-62
2022/10/24 02:44:58;;;;;;;;;;;;;;;;;;10461711;28;20345;-61
2022/10/24 02:50:00;;;;;;;;;;;;;;;;;;10463035;28;19924;-62
2022/10/24 02:55:05;;;;;;;;;;;;;;;;;;10461751;28;19925;-62
2022/10/24 03:00:07;;;;;;;;;;;;;;;;;;10443580;28;19971;-62
2022/10/24 03:05:09;;;;;;;;;;;;;;;;;;10460866;28;20376;-61
2022/10/24 03:10:11;;;;;;;;;;;;;;;;;;10461582;28;20295;-61
2022/10/24 03:15:13;;;;;;;;;;;;;;;;;;10460513;28;19937;-61
2022/10/24 03:20:15;;;;;;;;;;;;;;;;;;10461197;28;20427;-61
2022/10/24 03:25:17;;;;;;;;;;;;;;;;;;10460129;28;20323;-61
2022/10/24 03:30:19;;;;;;;;;;;;;;;;;;10461420;28;19951;-61
2022/10/24 03:35:21;;;;;;;;;;;;;;;;;;10492952;28;20372;-61
2022/10/24 03:40:23;;;;;;;;;;;;;;;;;;10502419;28;19925;-61
2022/10/24 03:45:25;;;;;;;;;;;;;;;;;;10501462;28;19928;-62
2022/10/24 03:50:27;;;;;;;;;;;;;;;;;;10548300;22;20378;-61
2022/10/24 03:55:29;;;;;;;;;;;;;;;;;;10542680;28;19928;-61
2022/10/24 04:00:37;;;;;;;;;;;;;;;;;;10543561;28;19924;-61
2022/10/24 04:05:40;;;;;;;;;;;;;;;;;;10540632;28;19924;-61
2022/10/24 04:10:42;;;;;;;;;;;;;;;;;;10543169;28;19978;-61
2022/10/24 04:15:44;;;;;;;;;;;;;;;;;;10540795;28;20378;-61
2022/10/24 04:20:46;;;;;;;;;;;;;;;;;;10542789;28;19924;-61
2022/10/24 04:25:48;;;;;;;;;;;;;;;;;;10541082;28;19950;-61
2022/10/24 04:30:50;;;;;;;;;;;;;;;;;;10540327;28;19977;-61
2022/10/24 04:35:52;;;;;;;;;;;;;;;;;;10540539;28;19924;-61
2022/10/24 04:40:54;;;;;;;;;;;;;;;;;;10541996;28;19924;-61
2022/10/24 04:45:56;;;;;;;;;;;;;;;;;;10540672;28;19937;-61
2022/10/24 04:50:58;;;;;;;;;;;;;;;;;;10541042;28;19928;-61
2022/10/24 04:56:00;;;;;;;;;;;;;;;;;;10540523;28;19970;-61
2022/10/24 05:01:02;;;;;;;;;;;;;;;;;;10541318;28;19950;-61
2022/10/24 05:06:04;;;;;;;;;;;;;;;;;;10539818;28;19924;-61
2022/10/24 05:11:08;;;;;;;;;;;;;;;;;;10541037;28;19947;-61
2022/10/24 05:16:10;;;;;;;;;;;;;;;;;;10539053;28;19928;-61
2022/10/24 05:21:12;;;;;;;;;;;;;;;;;;10540305;28;19924;-61
2022/10/24 05:26:14;;;;;;;;;;;;;;;;;;10540117;28;19928;-61
2022/10/24 05:31:16;;;;;;;;;;;;;;;;;;10540012;28;19932;-61
2022/10/24 05:36:19;;;;;;;;;;;;;;;;;;10539078;28;19924;-61
2022/10/24 05:41:21;;;;;;;;;;;;;;;;;;10539889;28;19924;-61
2022/10/24 05:46:23;;;;;;;;;;;;;;;;;;10538566;28;19928;-61
2022/10/24 05:51:26;;;;;;;;;;;;;;;;;;10538744;28;19924;-61
2022/10/24 05:56:28;;;;;;;;;;;;;;;;;;10538651;28;20313;-61
2022/10/24 06:01:30;;;;;;;;;;;;;;;;;;10539487;28;20520;-61
2022/10/24 06:06:33;;;;;;;;;;;;;;;;;;10538606;28;20359;-61
2022/10/24 06:11:35;;;;;;;;;;;;;;;;;;10539882;28;19973;-61
2022/10/24 06:16:37;;;;;;;;;;;;;;;;;;10537277;28;19974;-61
2022/10/24 06:21:39;;;;;;;;;;;;;;;;;;10538210;28;19986;-61
2022/10/24 06:26:41;;;;;;;;;;;;;;;;;;10538920;28;19924;-61
2022/10/24 06:31:43;;;;;;;;;;;;;;;;;;10545536;28;19924;-61
2022/10/24 06:36:45;;;;;;;;;;;;;;;;;;10546267;28;20337;-61
2022/10/24 06:41:47;;;;;;;;;;;;;;;;;;10545836;28;19974;-61
2022/10/24 06:46:49;;;;;;;;;;;;;;;;;;10545767;28;20366;-61
2022/10/24 06:51:52;;;;;;;;;;;;;;;;;;10545409;28;19950;-61
2022/10/24 06:56:54;;;;;;;;;;;;;;;;;;10541770;28;19975;-61
2022/10/24 07:01:57;;;;;;;;;;;;;;;;;;10545520;28;19969;-61
2022/10/24 07:07:02;;;;;;;;;;;;;;;;;;10545792;28;19959;-61
2022/10/24 07:12:04;;;;;;;;;;;;;;;;;;10543231;28;19924;-62
2022/10/24 07:17:06;;;;;;;;;;;;;;;;;;10545205;28;19924;-61
2022/10/24 07:22:08;;;;;;;;;;;;;;;;;;10543301;28;20378;-61
2022/10/24 07:27:10;;;;;;;;;;;;;;;;;;10543832;28;19925;-61
2022/10/24 07:32:12;;;;;;;;;;;;;;;;;;10539755;28;19977;-61
2022/10/24 07:37:14;;;;;;;;;;;;;;;;;;10543069;28;20440;-61
2022/10/24 07:42:17;;;;;;;;;;;;;;;;;;10538980;28;19924;-61
2022/10/24 07:47:19;;;;;;;;;;;;;;;;;;10537942;28;19987;-62
2022/10/24 07:52:21;;;;;;;;;;;;;;;;;;10567600;28;19924;-62
2022/10/24 07:57:23;;;;;;;;;;;;;;;;;;10548735;28;19924;-61
2022/10/24 08:02:25;;;;;;;;;;;;;;;;;;10542264;28;19931;-61
2022/10/24 08:07:28;;;;;;;;;;;;;;;;;;10560267;28;19953;-61
2022/10/24 08:12:30;;;;;;;;;;;;;;;;;;10585317;28;19949;-61
2022/10/24 08:17:32;;;;;;;;;;;;;;;;;;10544757;28;19925;-61
2022/10/24 08:22:35;;;;;;;;;;;;;;;;;;10539589;28;19924;-61
2022/10/24 08:27:37;;;;;;;;;;;;;;;;;;10538292;28;19924;-61
2022/10/24 08:32:39;;;;;;;;;;;;;;;;;;10533223;28;19931;-61
2022/10/24 08:37:41;;;;;;;;;;;;;;;;;;10519637;28;19924;-61
2022/10/24 08:42:43;;;;;;;;;;;;;;;;;;10515464;28;19924;-61
2022/10/24 08:47:45;;;;;;;;;;;;;;;;;;10576513;28;20465;-60
2022/10/24 08:52:47;;;;;;;;;;;;;;;;;;10552283;28;19928;-61
2022/10/24 08:57:49;;;;;;;;;;;;;;;;;;10539427;28;20332;-60
2022/10/24 09:02:52;;;;;;;;;;;;;;;;;;10538965;28;19986;-61
2022/10/24 09:07:54;;;;;;;;;;;;;;;;;;10538703;28;19978;-62
2022/10/24 09:12:56;;;;;;;;;;;;;;;;;;10539576;28;19924;-61
2022/10/24 09:17:58;;;;;;;;;;;;;;;;;;10538092;28;20432;-62
2022/10/24 09:23:00;;;;;;;;;;;;;;;;;;10539953;28;19925;-61
2022/10/24 09:28:02;;;;;;;;;;;;;;;;;;10539131;28;19924;-62
2022/10/24 09:33:04;;;;;;;;;;;;;;;;;;10538537;28;19924;-61
2022/10/24 09:38:06;;;;;;;;;;;;;;;;;;10538237;28;19924;-61
2022/10/24 09:43:08;;;;;;;;;;;;;;;;;;10536001;28;19973;-61
2022/10/24 09:48:10;;;;;;;;;;;;;;;;;;10521348;28;20375;-62
2022/10/24 09:53:12;;;;;;;;;;;;;;;;;;10506009;28;19924;-61
2022/10/24 09:58:14;;;;;;;;;;;;;;;;;;10527959;28;19973;-61
2022/10/24 10:03:16;;;;;;;;;;;;;;;;;;10526377;28;19974;-61
2022/10/24 10:08:23;;;;;;;;;;;;;;;;;;10505460;28;19931;-61
2022/10/24 10:13:26;;;;;;;;;;;;;;;;;;10504115;28;19924;-61
2022/10/24 10:18:28;;;;;;;;;;;;;;;;;;10501403;28;20472;-61
2022/10/24 10:23:31;;;;;;;;;;;;;;;;;;10504373;28;19946;-61
2022/10/24 10:28:33;;;;;;;;;;;;;;;;;;10505364;28;19950;-61
2022/10/24 10:33:35;;;;;;;;;;;;;;;;;;10503640;28;20318;-61
2022/10/24 10:38:43;;;;;;;;;;;;;;;;;;10504898;28;19978;-61
2022/10/24 10:43:45;;;;;;;;;;;;;;;;;;10503145;28;19924;-61
2022/10/24 10:48:47;;;;;;;;;;;;;;;;;;10503438;28;19924;-61
2022/10/24 10:53:49;;;;;;;;;;;;;;;;;;10503824;28;19935;-61
2022/10/24 10:58:51;;;;;;;;;;;;;;;;;;10502399;28;19931;-61
2022/10/24 11:03:53;;;;;;;;;;;;;;;;;;10502558;28;20433;-61
2022/10/24 11:08:55;;;;;;;;;;;;;;;;;;10503295;28;19925;-61
2022/10/24 11:13:57;;;;;;;;;;;;;;;;;;10502352;28;19929;-61
2022/10/24 11:18:59;;;;;;;;;;;;;;;;;;10501950;28;20337;-61
2022/10/24 11:24:01;;;;;;;;;;;;;;;;;;10485608;28;19924;-61
